sensor_id;sensor_type;location;lat;lon;timestamp;P1;durP1;ratioP1;P2;durP2;ratioP2
65174;SDS011;51761;42.126;24.752;2022-09-03T00:00:23;22.20;;;14.23;;
65174;SDS011;51761;42.126;24.752;2022-09-03T00:02:56;24.13;;;14.68;;
65174;SDS011;51761;42.126;24.752;2022-09-03T00:05:24;29.85;;;14.50;;
65174;SDS011;51761;42.126;24.752;2022-09-03T00:13:00;22.02;;;14.75;;
65174;SDS011;51761;42.126;24.752;2022-09-03T00:15:30;23.17;;;13.95;;
65174;SDS011;51761;42.126;24.752;2022-09-03T00:18:00;21.60;;;14.05;;
65174;SDS011;51761;42.126;24.752;2022-09-03T00:20:41;21.05;;;15.00;;
65174;SDS011;51761;42.126;24.752;2022-09-03T00:23:24;21.83;;;14.48;;
65174;SDS011;51761;42.126;24.752;2022-09-03T00:25:55;21.25;;;14.90;;
65174;SDS011;51761;42.126;24.752;2022-09-03T00:28:26;23.02;;;15.77;;
65174;SDS011;51761;42.126;24.752;2022-09-03T00:31:06;25.35;;;15.48;;
65174;SDS011;51761;42.126;24.752;2022-09-03T00:33:42;28.05;;;16.75;;
65174;SDS011;51761;42.126;24.752;2022-09-03T00:36:15;27.77;;;14.70;;
65174;SDS011;51761;42.126;24.752;2022-09-03T00:41:21;22.98;;;14.88;;
65174;SDS011;51761;42.126;24.752;2022-09-03T00:46:58;28.73;;;16.80;;
65174;SDS011;51761;42.126;24.752;2022-09-03T01:00:17;32.00;;;19.60;;
65174;SDS011;51761;42.126;24.752;2022-09-03T01:05:20;29.45;;;20.08;;
65174;SDS011;51761;42.126;24.752;2022-09-03T01:10:33;27.58;;;17.85;;
65174;SDS011;51761;42.126;24.752;2022-09-03T01:13:32;27.85;;;18.48;;
65174;SDS011;51761;42.126;24.752;2022-09-03T01:16:08;29.83;;;19.83;;
65174;SDS011;51761;42.126;24.752;2022-09-03T01:27:42;29.00;;;17.25;;
65174;SDS011;51761;42.126;24.752;2022-09-03T01:30:17;31.38;;;18.38;;
65174;SDS011;51761;42.126;24.752;2022-09-03T01:33:06;24.00;;;17.85;;
65174;SDS011;51761;42.126;24.752;2022-09-03T01:39:01;26.38;;;17.10;;
65174;SDS011;51761;42.126;24.752;2022-09-03T01:58:57;28.52;;;18.95;;
65174;SDS011;51761;42.126;24.752;2022-09-03T02:02:12;27.17;;;18.08;;
65174;SDS011;51761;42.126;24.752;2022-09-03T02:04:27;26.88;;;16.63;;
65174;SDS011;51761;42.126;24.752;2022-09-03T02:06:55;23.50;;;16.52;;
65174;SDS011;51761;42.126;24.752;2022-09-03T02:09:24;21.73;;;15.90;;
65174;SDS011;51761;42.126;24.752;2022-09-03T02:11:55;24.85;;;17.17;;
65174;SDS011;51761;42.126;24.752;2022-09-03T02:14:28;21.90;;;15.55;;
65174;SDS011;51761;42.126;24.752;2022-09-03T02:16:55;22.75;;;17.20;;
65174;SDS011;51761;42.126;24.752;2022-09-03T02:19:25;27.35;;;16.73;;
65174;SDS011;51761;42.126;24.752;2022-09-03T02:21:52;29.08;;;16.27;;
65174;SDS011;51761;42.126;24.752;2022-09-03T02:24:19;29.02;;;15.85;;
65174;SDS011;51761;42.126;24.752;2022-09-03T02:26:45;26.10;;;15.10;;
65174;SDS011;51761;42.126;24.752;2022-09-03T02:29:12;23.75;;;15.27;;
65174;SDS011;51761;42.126;24.752;2022-09-03T02:31:39;21.88;;;15.07;;
65174;SDS011;51761;42.126;24.752;2022-09-03T02:34:05;21.77;;;14.07;;
65174;SDS011;51761;42.126;24.752;2022-09-03T02:36:31;22.98;;;14.82;;
65174;SDS011;51761;42.126;24.752;2022-09-03T02:39:00;26.58;;;14.52;;
65174;SDS011;51761;42.126;24.752;2022-09-03T02:41:25;28.27;;;15.27;;
65174;SDS011;51761;42.126;24.752;2022-09-03T02:46:42;25.50;;;14.48;;
65174;SDS011;51761;42.126;24.752;2022-09-03T02:49:10;26.55;;;14.60;;
65174;SDS011;51761;42.126;24.752;2022-09-03T02:51:38;23.95;;;15.15;;
65174;SDS011;51761;42.126;24.752;2022-09-03T02:54:05;21.35;;;15.40;;
65174;SDS011;51761;42.126;24.752;2022-09-03T02:56:32;26.00;;;15.05;;
65174;SDS011;51761;42.126;24.752;2022-09-03T02:58:58;25.77;;;15.20;;
65174;SDS011;51761;42.126;24.752;2022-09-03T03:01:24;20.98;;;14.75;;
65174;SDS011;51761;42.126;24.752;2022-09-03T03:03:50;26.40;;;16.08;;
65174;SDS011;51761;42.126;24.752;2022-09-03T03:06:17;24.15;;;16.45;;
65174;SDS011;51761;42.126;24.752;2022-09-03T03:08:45;21.17;;;14.40;;
65174;SDS011;51761;42.126;24.752;2022-09-03T03:11:11;25.10;;;15.07;;
65174;SDS011;51761;42.126;24.752;2022-09-03T03:13:37;23.25;;;16.27;;
65174;SDS011;51761;42.126;24.752;2022-09-03T03:16:03;23.20;;;15.60;;
65174;SDS011;51761;42.126;24.752;2022-09-03T03:18:33;24.13;;;15.23;;
65174;SDS011;51761;42.126;24.752;2022-09-03T03:21:17;27.75;;;16.20;;
65174;SDS011;51761;42.126;24.752;2022-09-03T03:26:10;24.80;;;13.27;;
65174;SDS011;51761;42.126;24.752;2022-09-03T03:28:37;19.30;;;13.32;;
65174;SDS011;51761;42.126;24.752;2022-09-03T03:31:14;29.65;;;14.73;;
65174;SDS011;51761;42.126;24.752;2022-09-03T03:33:42;26.45;;;14.90;;
65174;SDS011;51761;42.126;24.752;2022-09-03T03:36:09;28.30;;;14.05;;
65174;SDS011;51761;42.126;24.752;2022-09-03T03:38:37;22.48;;;13.63;;
65174;SDS011;51761;42.126;24.752;2022-09-03T03:41:09;19.40;;;14.20;;
65174;SDS011;51761;42.126;24.752;2022-09-03T03:43:36;29.13;;;15.93;;
65174;SDS011;51761;42.126;24.752;2022-09-03T03:46:02;29.83;;;16.45;;
65174;SDS011;51761;42.126;24.752;2022-09-03T03:48:29;24.70;;;15.35;;
65174;SDS011;51761;42.126;24.752;2022-09-03T03:50:58;28.05;;;13.85;;
65174;SDS011;51761;42.126;24.752;2022-09-03T03:53:25;17.05;;;13.05;;
65174;SDS011;51761;42.126;24.752;2022-09-03T03:55:57;34.78;;;17.80;;
65174;SDS011;51761;42.126;24.752;2022-09-03T03:58:24;26.42;;;16.88;;
65174;SDS011;51761;42.126;24.752;2022-09-03T04:00:51;22.13;;;13.90;;
65174;SDS011;51761;42.126;24.752;2022-09-03T04:03:17;26.45;;;12.73;;
65174;SDS011;51761;42.126;24.752;2022-09-03T04:05:43;22.65;;;13.70;;
65174;SDS011;51761;42.126;24.752;2022-09-03T04:08:08;19.63;;;13.23;;
65174;SDS011;51761;42.126;24.752;2022-09-03T04:10:35;16.92;;;12.40;;
65174;SDS011;51761;42.126;24.752;2022-09-03T04:13:01;21.40;;;12.90;;
65174;SDS011;51761;42.126;24.752;2022-09-03T04:15:26;19.35;;;11.80;;
65174;SDS011;51761;42.126;24.752;2022-09-03T04:17:55;20.20;;;12.43;;
65174;SDS011;51761;42.126;24.752;2022-09-03T04:20:20;24.08;;;12.70;;
65174;SDS011;51761;42.126;24.752;2022-09-03T04:22:46;20.48;;;11.50;;
65174;SDS011;51761;42.126;24.752;2022-09-03T04:25:11;22.45;;;13.98;;
65174;SDS011;51761;42.126;24.752;2022-09-03T04:27:37;19.58;;;12.80;;
65174;SDS011;51761;42.126;24.752;2022-09-03T04:30:02;14.35;;;9.65;;
65174;SDS011;51761;42.126;24.752;2022-09-03T04:32:28;17.50;;;11.45;;
65174;SDS011;51761;42.126;24.752;2022-09-03T04:35:28;22.90;;;11.40;;
65174;SDS011;51761;42.126;24.752;2022-09-03T04:37:58;13.90;;;9.90;;
65174;SDS011;51761;42.126;24.752;2022-09-03T04:40:23;23.58;;;10.70;;
65174;SDS011;51761;42.126;24.752;2022-09-03T04:42:49;20.05;;;10.27;;
65174;SDS011;51761;42.126;24.752;2022-09-03T04:45:15;16.25;;;9.45;;
65174;SDS011;51761;42.126;24.752;2022-09-03T04:47:43;16.88;;;9.77;;
65174;SDS011;51761;42.126;24.752;2022-09-03T04:50:19;21.23;;;9.15;;
65174;SDS011;51761;42.126;24.752;2022-09-03T04:52:45;14.85;;;9.20;;
65174;SDS011;51761;42.126;24.752;2022-09-03T04:55:11;16.15;;;9.75;;
65174;SDS011;51761;42.126;24.752;2022-09-03T04:57:37;16.98;;;9.38;;
65174;SDS011;51761;42.126;24.752;2022-09-03T05:00:03;28.77;;;11.20;;
65174;SDS011;51761;42.126;24.752;2022-09-03T05:02:29;14.70;;;9.15;;
65174;SDS011;51761;42.126;24.752;2022-09-03T05:04:54;16.73;;;9.90;;
65174;SDS011;51761;42.126;24.752;2022-09-03T05:07:20;22.75;;;10.05;;
65174;SDS011;51761;42.126;24.752;2022-09-03T05:09:45;19.95;;;10.18;;
65174;SDS011;51761;42.126;24.752;2022-09-03T05:12:11;13.95;;;9.75;;
65174;SDS011;51761;42.126;24.752;2022-09-03T05:14:37;24.83;;;12.02;;
65174;SDS011;51761;42.126;24.752;2022-09-03T05:17:03;17.80;;;9.98;;
65174;SDS011;51761;42.126;24.752;2022-09-03T05:19:28;15.38;;;10.50;;
65174;SDS011;51761;42.126;24.752;2022-09-03T05:21:54;17.67;;;9.90;;
65174;SDS011;51761;42.126;24.752;2022-09-03T05:24:19;19.02;;;10.32;;
65174;SDS011;51761;42.126;24.752;2022-09-03T05:26:45;17.35;;;9.50;;
65174;SDS011;51761;42.126;24.752;2022-09-03T05:29:10;17.00;;;8.88;;
65174;SDS011;51761;42.126;24.752;2022-09-03T05:31:37;17.02;;;9.88;;
65174;SDS011;51761;42.126;24.752;2022-09-03T05:34:03;14.93;;;8.73;;
65174;SDS011;51761;42.126;24.752;2022-09-03T05:36:34;13.55;;;8.15;;
65174;SDS011;51761;42.126;24.752;2022-09-03T05:39:01;14.38;;;8.13;;
65174;SDS011;51761;42.126;24.752;2022-09-03T05:41:28;16.88;;;7.60;;
65174;SDS011;51761;42.126;24.752;2022-09-03T05:43:54;16.48;;;8.68;;
65174;SDS011;51761;42.126;24.752;2022-09-03T05:46:23;12.10;;;7.38;;
65174;SDS011;51761;42.126;24.752;2022-09-03T05:48:55;13.35;;;7.40;;
65174;SDS011;51761;42.126;24.752;2022-09-03T05:51:39;14.20;;;6.93;;
65174;SDS011;51761;42.126;24.752;2022-09-03T05:54:05;9.93;;;6.57;;
65174;SDS011;51761;42.126;24.752;2022-09-03T05:56:32;11.82;;;6.57;;
65174;SDS011;51761;42.126;24.752;2022-09-03T05:59:01;11.57;;;6.13;;
65174;SDS011;51761;42.126;24.752;2022-09-03T06:01:37;12.90;;;6.25;;
65174;SDS011;51761;42.126;24.752;2022-09-03T06:04:05;11.40;;;6.45;;
65174;SDS011;51761;42.126;24.752;2022-09-03T06:06:33;11.23;;;6.20;;
65174;SDS011;51761;42.126;24.752;2022-09-03T06:09:00;15.52;;;7.32;;
65174;SDS011;51761;42.126;24.752;2022-09-03T06:11:29;21.25;;;7.68;;
65174;SDS011;51761;42.126;24.752;2022-09-03T06:14:00;10.50;;;6.40;;
65174;SDS011;51761;42.126;24.752;2022-09-03T06:16:30;53.90;;;8.63;;
65174;SDS011;51761;42.126;24.752;2022-09-03T06:18:57;10.05;;;5.97;;
65174;SDS011;51761;42.126;24.752;2022-09-03T06:21:23;15.85;;;6.00;;
65174;SDS011;51761;42.126;24.752;2022-09-03T06:23:49;9.73;;;6.15;;
65174;SDS011;51761;42.126;24.752;2022-09-03T06:26:17;9.95;;;6.28;;
65174;SDS011;51761;42.126;24.752;2022-09-03T06:28:44;13.13;;;6.13;;
65174;SDS011;51761;42.126;24.752;2022-09-03T06:31:11;19.42;;;6.57;;
65174;SDS011;51761;42.126;24.752;2022-09-03T06:33:37;12.88;;;6.72;;
65174;SDS011;51761;42.126;24.752;2022-09-03T06:36:08;9.35;;;5.45;;
65174;SDS011;51761;42.126;24.752;2022-09-03T06:38:37;13.20;;;9.60;;
65174;SDS011;51761;42.126;24.752;2022-09-03T06:41:04;10.65;;;5.60;;
65174;SDS011;51761;42.126;24.752;2022-09-03T06:43:32;9.73;;;5.13;;
65174;SDS011;51761;42.126;24.752;2022-09-03T06:46:00;10.20;;;5.97;;
65174;SDS011;51761;42.126;24.752;2022-09-03T06:48:27;8.80;;;5.80;;
65174;SDS011;51761;42.126;24.752;2022-09-03T06:50:58;8.93;;;6.07;;
65174;SDS011;51761;42.126;24.752;2022-09-03T06:53:38;17.20;;;6.45;;
65174;SDS011;51761;42.126;24.752;2022-09-03T06:56:06;12.48;;;6.68;;
65174;SDS011;51761;42.126;24.752;2022-09-03T06:58:34;17.83;;;7.50;;
65174;SDS011;51761;42.126;24.752;2022-09-03T07:01:06;16.25;;;7.35;;
65174;SDS011;51761;42.126;24.752;2022-09-03T07:03:34;10.13;;;6.43;;
65174;SDS011;51761;42.126;24.752;2022-09-03T07:06:01;23.00;;;13.13;;
65174;SDS011;51761;42.126;24.752;2022-09-03T07:08:29;11.05;;;6.55;;
65174;SDS011;51761;42.126;24.752;2022-09-03T07:10:57;13.00;;;6.97;;
65174;SDS011;51761;42.126;24.752;2022-09-03T07:13:24;13.45;;;5.95;;
65174;SDS011;51761;42.126;24.752;2022-09-03T07:18:59;14.43;;;6.68;;
65174;SDS011;51761;42.126;24.752;2022-09-03T07:21:28;20.27;;;6.45;;
65174;SDS011;51761;42.126;24.752;2022-09-03T07:23:54;12.05;;;6.38;;
65174;SDS011;51761;42.126;24.752;2022-09-03T07:26:22;10.55;;;6.70;;
65174;SDS011;51761;42.126;24.752;2022-09-03T07:28:49;9.70;;;7.28;;
65174;SDS011;51761;42.126;24.752;2022-09-03T07:31:20;10.82;;;6.40;;
65174;SDS011;51761;42.126;24.752;2022-09-03T07:33:49;11.57;;;7.03;;
65174;SDS011;51761;42.126;24.752;2022-09-03T07:36:18;10.98;;;6.43;;
65174;SDS011;51761;42.126;24.752;2022-09-03T07:38:44;14.30;;;6.35;;
65174;SDS011;51761;42.126;24.752;2022-09-03T07:41:10;13.55;;;6.82;;
65174;SDS011;51761;42.126;24.752;2022-09-03T07:43:38;13.90;;;6.60;;
65174;SDS011;51761;42.126;24.752;2022-09-03T07:46:09;11.88;;;6.43;;
65174;SDS011;51761;42.126;24.752;2022-09-03T07:48:38;16.83;;;6.43;;
65174;SDS011;51761;42.126;24.752;2022-09-03T07:51:05;12.20;;;7.28;;
65174;SDS011;51761;42.126;24.752;2022-09-03T07:53:31;8.45;;;5.22;;
65174;SDS011;51761;42.126;24.752;2022-09-03T07:56:04;8.35;;;4.55;;
65174;SDS011;51761;42.126;24.752;2022-09-03T07:58:31;8.32;;;5.25;;
65174;SDS011;51761;42.126;24.752;2022-09-03T08:01:02;8.82;;;5.53;;
65174;SDS011;51761;42.126;24.752;2022-09-03T08:03:29;6.55;;;5.00;;
65174;SDS011;51761;42.126;24.752;2022-09-03T08:05:59;5.72;;;4.80;;
65174;SDS011;51761;42.126;24.752;2022-09-03T08:08:29;12.95;;;5.55;;
65174;SDS011;51761;42.126;24.752;2022-09-03T08:11:06;11.10;;;5.43;;
65174;SDS011;51761;42.126;24.752;2022-09-03T08:13:38;11.00;;;5.40;;
65174;SDS011;51761;42.126;24.752;2022-09-03T08:16:19;6.78;;;5.05;;
65174;SDS011;51761;42.126;24.752;2022-09-03T08:18:44;7.13;;;4.95;;
65174;SDS011;51761;42.126;24.752;2022-09-03T08:21:15;8.05;;;5.13;;
65174;SDS011;51761;42.126;24.752;2022-09-03T08:23:47;12.20;;;6.30;;
65174;SDS011;51761;42.126;24.752;2022-09-03T08:26:15;11.32;;;8.05;;
65174;SDS011;51761;42.126;24.752;2022-09-03T08:28:42;14.30;;;5.40;;
65174;SDS011;51761;42.126;24.752;2022-09-03T08:33:35;12.15;;;6.45;;
65174;SDS011;51761;42.126;24.752;2022-09-03T08:36:09;9.23;;;6.15;;
65174;SDS011;51761;42.126;24.752;2022-09-03T08:38:39;11.15;;;7.45;;
65174;SDS011;51761;42.126;24.752;2022-09-03T08:51:53;8.32;;;5.78;;
65174;SDS011;51761;42.126;24.752;2022-09-03T08:54:23;10.52;;;5.53;;
65174;SDS011;51761;42.126;24.752;2022-09-03T08:56:51;10.20;;;5.90;;
65174;SDS011;51761;42.126;24.752;2022-09-03T08:59:19;9.30;;;5.82;;
65174;SDS011;51761;42.126;24.752;2022-09-03T09:04:53;11.18;;;5.93;;
65174;SDS011;51761;42.126;24.752;2022-09-03T09:07:44;8.25;;;6.18;;
65174;SDS011;51761;42.126;24.752;2022-09-03T09:21:14;8.00;;;5.93;;
65174;SDS011;51761;42.126;24.752;2022-09-03T09:23:45;8.57;;;5.47;;
65174;SDS011;51761;42.126;24.752;2022-09-03T09:26:13;9.15;;;6.00;;
65174;SDS011;51761;42.126;24.752;2022-09-03T09:28:41;18.02;;;10.27;;
65174;SDS011;51761;42.126;24.752;2022-09-03T09:31:11;10.68;;;5.80;;
65174;SDS011;51761;42.126;24.752;2022-09-03T09:33:43;9.95;;;6.28;;
65174;SDS011;51761;42.126;24.752;2022-09-03T09:36:11;11.73;;;6.43;;
65174;SDS011;51761;42.126;24.752;2022-09-03T09:41:14;12.07;;;5.55;;
65174;SDS011;51761;42.126;24.752;2022-09-03T09:43:45;8.45;;;6.07;;
65174;SDS011;51761;42.126;24.752;2022-09-03T09:46:15;11.52;;;5.68;;
65174;SDS011;51761;42.126;24.752;2022-09-03T09:56:44;13.90;;;6.75;;
65174;SDS011;51761;42.126;24.752;2022-09-03T09:59:11;9.13;;;5.80;;
65174;SDS011;51761;42.126;24.752;2022-09-03T10:01:42;7.32;;;5.30;;
65174;SDS011;51761;42.126;24.752;2022-09-03T10:06:52;12.88;;;6.38;;
65174;SDS011;51761;42.126;24.752;2022-09-03T10:12:12;10.82;;;6.10;;
65174;SDS011;51761;42.126;24.752;2022-09-03T10:14:59;9.23;;;6.25;;
65174;SDS011;51761;42.126;24.752;2022-09-03T10:20:23;9.10;;;5.53;;
65174;SDS011;51761;42.126;24.752;2022-09-03T10:25:21;8.77;;;5.68;;
65174;SDS011;51761;42.126;24.752;2022-09-03T10:27:51;8.25;;;5.38;;
65174;SDS011;51761;42.126;24.752;2022-09-03T10:30:18;7.60;;;5.50;;
65174;SDS011;51761;42.126;24.752;2022-09-03T10:33:00;13.30;;;6.95;;
65174;SDS011;51761;42.126;24.752;2022-09-03T10:35:34;14.68;;;7.43;;
65174;SDS011;51761;42.126;24.752;2022-09-03T10:47:10;9.45;;;5.88;;
65174;SDS011;51761;42.126;24.752;2022-09-03T10:49:58;7.75;;;6.10;;
65174;SDS011;51761;42.126;24.752;2022-09-03T10:52:49;8.10;;;6.00;;
65174;SDS011;51761;42.126;24.752;2022-09-03T11:00:53;8.45;;;6.10;;
65174;SDS011;51761;42.126;24.752;2022-09-03T11:03:38;8.40;;;6.55;;
65174;SDS011;51761;42.126;24.752;2022-09-03T11:06:28;7.72;;;5.90;;
65174;SDS011;51761;42.126;24.752;2022-09-03T11:09:01;8.95;;;6.53;;
65174;SDS011;51761;42.126;24.752;2022-09-03T11:11:42;10.20;;;6.38;;
65174;SDS011;51761;42.126;24.752;2022-09-03T11:14:16;6.70;;;5.53;;
65174;SDS011;51761;42.126;24.752;2022-09-03T11:16:51;7.90;;;6.13;;
65174;SDS011;51761;42.126;24.752;2022-09-03T11:19:26;12.05;;;6.00;;
65174;SDS011;51761;42.126;24.752;2022-09-03T11:22:00;5.60;;;5.03;;
65174;SDS011;51761;42.126;24.752;2022-09-03T11:24:29;12.43;;;6.28;;
65174;SDS011;51761;42.126;24.752;2022-09-03T11:27:01;7.43;;;5.55;;
65174;SDS011;51761;42.126;24.752;2022-09-03T11:29:46;11.20;;;6.22;;
65174;SDS011;51761;42.126;24.752;2022-09-03T11:32:23;11.27;;;6.25;;
65174;SDS011;51761;42.126;24.752;2022-09-03T11:34:57;8.65;;;5.15;;
65174;SDS011;51761;42.126;24.752;2022-09-03T11:37:23;9.15;;;5.30;;
65174;SDS011;51761;42.126;24.752;2022-09-03T11:39:58;8.38;;;5.93;;
65174;SDS011;51761;42.126;24.752;2022-09-03T11:42:33;13.30;;;5.72;;
65174;SDS011;51761;42.126;24.752;2022-09-03T11:45:20;9.38;;;6.65;;
65174;SDS011;51761;42.126;24.752;2022-09-03T11:47:54;7.80;;;4.88;;
65174;SDS011;51761;42.126;24.752;2022-09-03T11:50:24;9.18;;;4.47;;
65174;SDS011;51761;42.126;24.752;2022-09-03T11:52:52;10.00;;;4.70;;
65174;SDS011;51761;42.126;24.752;2022-09-03T11:58:43;13.15;;;4.22;;
65174;SDS011;51761;42.126;24.752;2022-09-03T12:01:10;5.32;;;3.85;;
65174;SDS011;51761;42.126;24.752;2022-09-03T12:03:44;5.00;;;3.63;;
65174;SDS011;51761;42.126;24.752;2022-09-03T12:14:39;11.07;;;3.78;;
65174;SDS011;51761;42.126;24.752;2022-09-03T12:19:51;7.15;;;4.07;;
65174;SDS011;51761;42.126;24.752;2022-09-03T12:22:20;7.40;;;3.72;;
65174;SDS011;51761;42.126;24.752;2022-09-03T12:24:47;5.28;;;4.00;;
65174;SDS011;51761;42.126;24.752;2022-09-03T12:27:18;8.23;;;3.80;;
65174;SDS011;51761;42.126;24.752;2022-09-03T12:32:27;7.00;;;3.95;;
65174;SDS011;51761;42.126;24.752;2022-09-03T12:37:44;6.70;;;2.88;;
65174;SDS011;51761;42.126;24.752;2022-09-03T12:40:23;4.78;;;2.25;;
65174;SDS011;51761;42.126;24.752;2022-09-03T12:42:50;4.35;;;2.15;;
65174;SDS011;51761;42.126;24.752;2022-09-03T12:45:23;5.85;;;2.75;;
65174;SDS011;51761;42.126;24.752;2022-09-03T12:50:23;2.97;;;2.38;;
65174;SDS011;51761;42.126;24.752;2022-09-03T12:52:50;4.70;;;2.20;;
65174;SDS011;51761;42.126;24.752;2022-09-03T12:55:23;5.50;;;2.42;;
65174;SDS011;51761;42.126;24.752;2022-09-03T12:57:51;2.95;;;2.35;;
65174;SDS011;51761;42.126;24.752;2022-09-03T13:00:30;4.68;;;3.05;;
65174;SDS011;51761;42.126;24.752;2022-09-03T13:03:04;4.90;;;2.33;;
65174;SDS011;51761;42.126;24.752;2022-09-03T13:05:34;4.57;;;2.00;;
65174;SDS011;51761;42.126;24.752;2022-09-03T13:08:09;2.85;;;1.85;;
65174;SDS011;51761;42.126;24.752;2022-09-03T13:10:43;4.63;;;2.70;;
65174;SDS011;51761;42.126;24.752;2022-09-03T13:13:20;6.18;;;3.65;;
65174;SDS011;51761;42.126;24.752;2022-09-03T13:18:45;4.70;;;2.10;;
65174;SDS011;51761;42.126;24.752;2022-09-03T13:26:39;4.32;;;2.58;;
65174;SDS011;51761;42.126;24.752;2022-09-03T13:31:52;1.90;;;1.70;;
65174;SDS011;51761;42.126;24.752;2022-09-03T13:34:25;4.23;;;1.80;;
65174;SDS011;51761;42.126;24.752;2022-09-03T13:39:55;9.68;;;1.63;;
65174;SDS011;51761;42.126;24.752;2022-09-03T13:42:31;2.83;;;1.80;;
65174;SDS011;51761;42.126;24.752;2022-09-03T13:45:28;4.43;;;1.83;;
65174;SDS011;51761;42.126;24.752;2022-09-03T13:51:01;2.97;;;1.67;;
65174;SDS011;51761;42.126;24.752;2022-09-03T14:07:47;1.30;;;1.17;;
65174;SDS011;51761;42.126;24.752;2022-09-03T14:10:23;5.15;;;1.60;;
65174;SDS011;51761;42.126;24.752;2022-09-03T14:15:51;6.28;;;3.50;;
65174;SDS011;51761;42.126;24.752;2022-09-03T14:26:56;3.75;;;1.83;;
65174;SDS011;51761;42.126;24.752;2022-09-03T14:29:27;4.28;;;1.83;;
65174;SDS011;51761;42.126;24.752;2022-09-03T14:35:11;3.90;;;1.90;;
65174;SDS011;51761;42.126;24.752;2022-09-03T14:37:49;4.47;;;2.13;;
65174;SDS011;51761;42.126;24.752;2022-09-03T14:43:40;3.33;;;2.63;;
65174;SDS011;51761;42.126;24.752;2022-09-03T14:48:58;5.95;;;3.53;;
65174;SDS011;51761;42.126;24.752;2022-09-03T15:07:40;9.02;;;2.45;;
65174;SDS011;51761;42.126;24.752;2022-09-03T15:10:31;2.75;;;2.10;;
65174;SDS011;51761;42.126;24.752;2022-09-03T15:13:09;9.60;;;2.55;;
65174;SDS011;51761;42.126;24.752;2022-09-03T15:18:13;4.95;;;2.55;;
65174;SDS011;51761;42.126;24.752;2022-09-03T15:20:52;4.00;;;2.28;;
65174;SDS011;51761;42.126;24.752;2022-09-03T15:26:12;6.17;;;4.10;;
65174;SDS011;51761;42.126;24.752;2022-09-03T15:36:54;8.23;;;3.22;;
65174;SDS011;51761;42.126;24.752;2022-09-03T15:39:24;7.72;;;4.18;;
65174;SDS011;51761;42.126;24.752;2022-09-03T15:41:58;8.23;;;4.50;;
65174;SDS011;51761;42.126;24.752;2022-09-03T15:44:34;7.57;;;4.05;;
65174;SDS011;51761;42.126;24.752;2022-09-03T15:47:07;16.30;;;4.65;;
65174;SDS011;51761;42.126;24.752;2022-09-03T15:55:14;7.47;;;3.53;;
65174;SDS011;51761;42.126;24.752;2022-09-03T15:58:02;4.40;;;2.55;;
65174;SDS011;51761;42.126;24.752;2022-09-03T16:00:34;3.60;;;1.88;;
65174;SDS011;51761;42.126;24.752;2022-09-03T16:03:14;6.90;;;2.80;;
65174;SDS011;51761;42.126;24.752;2022-09-03T16:09:00;4.53;;;2.10;;
65174;SDS011;51761;42.126;24.752;2022-09-03T16:12:07;5.40;;;2.70;;
65174;SDS011;51761;42.126;24.752;2022-09-03T16:14:57;7.32;;;3.05;;
65174;SDS011;51761;42.126;24.752;2022-09-03T16:17:26;3.30;;;2.17;;
65174;SDS011;51761;42.126;24.752;2022-09-03T16:20:00;4.97;;;2.22;;
65174;SDS011;51761;42.126;24.752;2022-09-03T16:22:44;13.20;;;3.10;;
65174;SDS011;51761;42.126;24.752;2022-09-03T16:25:43;7.03;;;3.63;;
65174;SDS011;51761;42.126;24.752;2022-09-03T16:28:15;9.30;;;4.65;;
65174;SDS011;51761;42.126;24.752;2022-09-03T16:33:53;9.88;;;4.50;;
65174;SDS011;51761;42.126;24.752;2022-09-03T16:36:42;12.35;;;4.70;;
65174;SDS011;51761;42.126;24.752;2022-09-03T17:01:46;5.63;;;2.50;;
65174;SDS011;51761;42.126;24.752;2022-09-03T17:07:16;4.20;;;2.15;;
65174;SDS011;51761;42.126;24.752;2022-09-03T17:15:37;4.03;;;2.25;;
65174;SDS011;51761;42.126;24.752;2022-09-03T17:18:18;6.85;;;2.60;;
65174;SDS011;51761;42.126;24.752;2022-09-03T17:31:59;7.35;;;2.90;;
65174;SDS011;51761;42.126;24.752;2022-09-03T17:46:09;4.53;;;3.05;;
65174;SDS011;51761;42.126;24.752;2022-09-03T17:56:44;26.40;;;14.35;;
65174;SDS011;51761;42.126;24.752;2022-09-03T18:02:42;6.20;;;3.55;;
65174;SDS011;51761;42.126;24.752;2022-09-03T18:08:06;8.07;;;3.22;;
65174;SDS011;51761;42.126;24.752;2022-09-03T18:11:09;6.20;;;3.30;;
65174;SDS011;51761;42.126;24.752;2022-09-03T18:16:13;5.60;;;3.97;;
65174;SDS011;51761;42.126;24.752;2022-09-03T18:18:46;4.18;;;3.58;;
65174;SDS011;51761;42.126;24.752;2022-09-03T18:21:20;8.45;;;4.00;;
65174;SDS011;51761;42.126;24.752;2022-09-03T18:24:10;9.23;;;3.97;;
65174;SDS011;51761;42.126;24.752;2022-09-03T18:27:19;5.53;;;4.13;;
65174;SDS011;51761;42.126;24.752;2022-09-03T18:30:13;8.32;;;3.97;;
65174;SDS011;51761;42.126;24.752;2022-09-03T18:32:58;5.00;;;3.72;;
65174;SDS011;51761;42.126;24.752;2022-09-03T18:35:43;7.03;;;3.85;;
65174;SDS011;51761;42.126;24.752;2022-09-03T18:38:37;8.80;;;4.10;;
65174;SDS011;51761;42.126;24.752;2022-09-03T18:54:01;8.80;;;4.65;;
65174;SDS011;51761;42.126;24.752;2022-09-03T19:20:27;6.13;;;4.53;;
65174;SDS011;51761;42.126;24.752;2022-09-03T19:23:14;8.75;;;4.80;;
65174;SDS011;51761;42.126;24.752;2022-09-03T19:26:13;7.28;;;4.88;;
65174;SDS011;51761;42.126;24.752;2022-09-03T19:29:11;6.45;;;4.63;;
65174;SDS011;51761;42.126;24.752;2022-09-03T19:32:10;11.00;;;4.57;;
65174;SDS011;51761;42.126;24.752;2022-09-03T19:35:15;10.07;;;4.95;;
65174;SDS011;51761;42.126;24.752;2022-09-03T19:41:07;8.18;;;5.10;;
65174;SDS011;51761;42.126;24.752;2022-09-03T19:44:38;10.30;;;5.75;;
65174;SDS011;51761;42.126;24.752;2022-09-03T19:47:36;11.75;;;5.10;;
65174;SDS011;51761;42.126;24.752;2022-09-03T19:50:32;10.13;;;5.38;;
65174;SDS011;51761;42.126;24.752;2022-09-03T19:53:21;12.35;;;4.97;;
65174;SDS011;51761;42.126;24.752;2022-09-03T19:56:12;8.60;;;5.60;;
65174;SDS011;51761;42.126;24.752;2022-09-03T19:59:05;9.25;;;5.38;;
65174;SDS011;51761;42.126;24.752;2022-09-03T20:01:54;8.48;;;5.10;;
65174;SDS011;51761;42.126;24.752;2022-09-03T20:04:43;9.07;;;5.10;;
65174;SDS011;51761;42.126;24.752;2022-09-03T20:07:39;9.73;;;5.60;;
65174;SDS011;51761;42.126;24.752;2022-09-03T20:10:23;10.90;;;5.72;;
65174;SDS011;51761;42.126;24.752;2022-09-03T20:13:07;7.53;;;5.63;;
65174;SDS011;51761;42.126;24.752;2022-09-03T20:21:46;7.25;;;5.68;;
65174;SDS011;51761;42.126;24.752;2022-09-03T20:30:19;12.27;;;5.75;;
65174;SDS011;51761;42.126;24.752;2022-09-03T20:47:13;11.80;;;6.20;;
65174;SDS011;51761;42.126;24.752;2022-09-03T20:49:55;6.63;;;4.95;;
65174;SDS011;51761;42.126;24.752;2022-09-03T20:52:29;9.07;;;6.13;;
65174;SDS011;51761;42.126;24.752;2022-09-03T20:55:03;14.27;;;5.88;;
65174;SDS011;51761;42.126;24.752;2022-09-03T21:00:09;9.65;;;5.70;;
65174;SDS011;51761;42.126;24.752;2022-09-03T21:05:53;9.68;;;5.90;;
65174;SDS011;51761;42.126;24.752;2022-09-03T21:08:44;8.15;;;5.75;;
65174;SDS011;51761;42.126;24.752;2022-09-03T21:11:42;7.43;;;5.47;;
65174;SDS011;51761;42.126;24.752;2022-09-03T21:17:11;10.75;;;5.55;;
65174;SDS011;51761;42.126;24.752;2022-09-03T21:20:12;8.93;;;5.40;;
65174;SDS011;51761;42.126;24.752;2022-09-03T21:25:19;9.25;;;5.53;;
65174;SDS011;51761;42.126;24.752;2022-09-03T21:30:23;7.57;;;5.93;;
65174;SDS011;51761;42.126;24.752;2022-09-03T21:32:50;16.23;;;5.40;;